Terminal Aerodrome Forecast
Issued by NWS

Home | Current Version | Previous Version | Text Only | Print | Product List | Glossary On
Versions: 1 2 3 4 5 6 7 8 9 10 11 12 13 14 15
000
FTAK31 PAFA 192327
TAFATA
TAF
PATA 192327Z 2000/2024 24006KT P6SM FEW080 SCT130
     FM200400 07004KT P6SM VCFG FEW006 SCT080
     FM201900 10006KT P6SM SCT080=

USA.gov is the U.S. government's official web portal to all federal, state and local government web resources and services.